createdAt,value
2023-01-18T00:01:00.457Z,0.60
2023-01-18T00:03:27.399Z,0.70
2023-01-18T00:05:55.368Z,0.60
2023-01-18T00:08:22.267Z,0.60
2023-01-18T00:10:49.284Z,0.60
2023-01-18T00:13:16.225Z,0.60
2023-01-18T00:15:43.181Z,0.70
2023-01-18T00:18:10.102Z,0.70
2023-01-18T00:20:37.063Z,0.60
2023-01-18T00:23:04.022Z,0.60
2023-01-18T00:25:31.386Z,0.70
2023-01-18T00:27:58.380Z,0.60
2023-01-18T00:30:27.944Z,0.60
2023-01-18T00:32:57.755Z,0.70
2023-01-18T00:35:25.534Z,0.60
2023-01-18T00:37:53.784Z,0.60
2023-01-18T00:40:22.389Z,0.60
2023-01-18T00:43:08.102Z,0.50
2023-01-18T00:45:35.154Z,0.50
2023-01-18T00:48:02.882Z,0.50
2023-01-18T00:50:30.222Z,0.50
2023-01-18T00:52:58.874Z,0.50
2023-01-18T00:55:26.422Z,0.50
2023-01-18T00:57:53.327Z,0.40
2023-01-18T01:00:20.599Z,0.50
2023-01-18T01:02:47.565Z,0.60
2023-01-18T01:05:51.001Z,0.60
2023-01-18T01:08:18.067Z,0.60
2023-01-18T01:10:47.276Z,0.60
2023-01-18T01:13:35.398Z,0.60
2023-01-18T01:16:28.666Z,0.60
2023-01-18T01:19:14.385Z,0.60
2023-01-18T01:22:00.143Z,0.60
2023-01-18T01:24:45.762Z,0.60
2023-01-18T01:27:12.923Z,0.50
2023-01-18T01:29:39.855Z,0.50
2023-01-18T01:32:07.321Z,0.50
2023-01-18T01:34:34.356Z,0.50
2023-01-18T01:37:01.443Z,0.60
2023-01-18T01:39:28.506Z,0.50
2023-01-18T01:41:55.514Z,0.60
2023-01-18T01:44:25.315Z,0.60
2023-01-18T01:47:04.744Z,0.60
2023-01-18T01:49:35.713Z,0.70
2023-01-18T01:52:12.143Z,0.70
2023-01-18T01:54:58.083Z,0.60
2023-01-18T01:57:34.756Z,0.60
2023-01-18T02:00:06.888Z,0.70
2023-01-18T02:02:35.823Z,0.70
2023-01-18T02:05:05.306Z,0.70
2023-01-18T02:07:33.329Z,0.70
2023-01-18T02:10:01.771Z,0.60
2023-01-18T02:12:30.453Z,0.60
2023-01-18T02:14:59.486Z,0.70
2023-01-18T02:17:45.783Z,0.60
2023-01-18T02:20:50.213Z,0.70
2023-01-18T02:23:34.041Z,0.70
2023-01-18T02:26:28.628Z,0.70
2023-01-18T02:29:10.491Z,0.70
2023-01-18T02:31:57.284Z,0.70
2023-01-18T02:34:35.384Z,0.70
2023-01-18T02:37:37.518Z,0.70
2023-01-18T02:40:45.490Z,0.80
2023-01-18T02:43:33.555Z,0.80
2023-01-18T02:46:19.837Z,0.80
2023-01-18T02:48:48.903Z,0.80
2023-01-18T02:51:15.927Z,0.80
2023-01-18T02:53:45.062Z,0.80
2023-01-18T02:56:17.113Z,0.80
2023-01-18T02:58:59.679Z,0.80
2023-01-18T03:01:40.092Z,0.90
2023-01-18T03:04:17.945Z,0.80
2023-01-18T03:06:48.973Z,0.80
2023-01-18T03:09:18.620Z,0.80
2023-01-18T03:11:57.625Z,0.80
2023-01-18T03:15:06.173Z,0.80
2023-01-18T03:17:41.905Z,0.70
2023-01-18T03:20:16.011Z,0.70
2023-01-18T03:23:06.325Z,0.70
2023-01-18T03:25:39.018Z,0.60
2023-01-18T03:28:31.658Z,0.60
2023-01-18T03:31:19.838Z,0.60
2023-01-18T03:33:51.575Z,0.60
2023-01-18T03:36:25.619Z,0.60
2023-01-18T03:39:06.289Z,0.70
2023-01-18T03:41:39.166Z,0.70
2023-01-18T03:44:29.465Z,0.70
2023-01-18T03:46:57.469Z,0.70
2023-01-18T03:49:25.675Z,0.70
2023-01-18T03:52:08.161Z,0.70
2023-01-18T03:54:39.552Z,0.70
2023-01-18T03:57:19.080Z,0.70
2023-01-18T03:59:47.418Z,0.80
2023-01-18T04:02:17.807Z,0.80
2023-01-18T04:04:44.852Z,0.80
2023-01-18T04:07:11.858Z,0.80
2023-01-18T04:09:38.740Z,0.80
2023-01-18T04:12:05.880Z,0.70
2023-01-18T04:14:32.981Z,0.60
2023-01-18T04:16:59.989Z,0.60
2023-01-18T04:19:28.397Z,0.50
2023-01-18T04:21:55.444Z,0.50
2023-01-18T04:24:22.447Z,0.50
2023-01-18T04:26:49.366Z,0.50
2023-01-18T04:29:16.604Z,0.50
2023-01-18T04:31:43.894Z,0.50
2023-01-18T04:34:10.873Z,0.50
2023-01-18T04:36:37.796Z,0.50
2023-01-18T04:39:04.970Z,0.60
2023-01-18T04:41:32.317Z,0.60
2023-01-18T04:43:59.387Z,0.60
2023-01-18T04:46:27.107Z,0.60
2023-01-18T04:48:54.155Z,0.60
2023-01-18T04:51:21.504Z,0.60
2023-01-18T04:53:48.486Z,0.70
2023-01-18T04:56:15.686Z,0.70
2023-01-18T04:58:43.148Z,0.70
2023-01-18T05:01:14.350Z,0.70
2023-01-18T05:03:41.731Z,0.80
2023-01-18T05:06:11.079Z,0.70
2023-01-18T05:08:42.653Z,0.70
2023-01-18T05:11:12.793Z,0.70
2023-01-18T05:13:40.475Z,0.70
2023-01-18T05:16:12.734Z,0.70
2023-01-18T05:18:39.819Z,0.80
2023-01-18T05:21:06.785Z,0.80
2023-01-18T05:23:33.664Z,0.80
2023-01-18T05:26:00.655Z,0.80
2023-01-18T05:28:28.457Z,0.90
2023-01-18T05:30:55.621Z,0.90
2023-01-18T05:33:23.404Z,0.90
2023-01-18T05:35:55.188Z,0.90
2023-01-18T05:38:23.116Z,0.90
2023-01-18T05:40:55.175Z,0.90
2023-01-18T05:43:23.611Z,0.90
2023-01-18T05:45:50.804Z,1.00
2023-01-18T05:48:17.820Z,0.90
2023-01-18T05:50:46.832Z,0.90
2023-01-18T05:53:15.777Z,0.90
2023-01-18T05:55:42.720Z,0.90
2023-01-18T05:58:11.753Z,0.90
2023-01-18T06:00:38.659Z,0.90
2023-01-18T06:03:05.579Z,0.80
2023-01-18T06:05:32.481Z,0.80
2023-01-18T06:07:59.675Z,0.80
2023-01-18T06:10:26.591Z,0.80
2023-01-18T06:12:53.657Z,0.80
2023-01-18T06:15:20.669Z,0.80
2023-01-18T06:17:47.686Z,0.70
2023-01-18T06:20:15.335Z,0.70
2023-01-18T06:22:42.511Z,0.60
2023-01-18T06:25:10.359Z,0.60
2023-01-18T06:27:39.986Z,0.50
2023-01-18T06:30:07.949Z,0.50
2023-01-18T06:32:34.850Z,0.50
2023-01-18T06:35:01.969Z,0.40
2023-01-18T06:37:28.892Z,0.40
2023-01-18T06:39:55.935Z,0.40
2023-01-18T06:42:22.880Z,0.40
2023-01-18T06:44:49.793Z,0.30
2023-01-18T06:47:20.025Z,0.30
2023-01-18T06:49:50.440Z,0.30
2023-01-18T06:52:18.098Z,0.30
2023-01-18T06:54:45.159Z,0.30
2023-01-18T06:57:12.632Z,0.30
2023-01-18T06:59:40.316Z,0.30
2023-01-18T07:02:09.789Z,0.30
2023-01-18T07:04:42.784Z,0.30
2023-01-18T07:07:09.986Z,0.20
2023-01-18T07:09:37.020Z,0.20
2023-01-18T07:12:04.922Z,0.20
2023-01-18T07:14:31.879Z,0.20
2023-01-18T07:16:58.952Z,0.20
2023-01-18T07:19:25.882Z,0.20
2023-01-18T07:21:54.057Z,0.20
2023-01-18T07:24:21.594Z,0.20
2023-01-18T07:26:48.797Z,0.20
2023-01-18T07:29:15.891Z,0.20
2023-01-18T07:31:42.908Z,0.20
2023-01-18T07:34:11.314Z,0.20
2023-01-18T07:36:39.427Z,0.20
2023-01-18T07:39:06.691Z,0.20
2023-01-18T07:41:34.238Z,0.20
2023-01-18T07:44:04.279Z,0.30
2023-01-18T07:46:31.984Z,0.30
2023-01-18T07:48:58.901Z,0.30
2023-01-18T07:51:25.934Z,0.30
2023-01-18T07:53:56.018Z,0.30
2023-01-18T07:56:25.270Z,0.40
2023-01-18T07:58:53.179Z,0.40
2023-01-18T08:01:22.414Z,0.40
2023-01-18T08:03:50.680Z,0.40
2023-01-18T08:06:25.164Z,0.40
2023-01-18T08:08:52.685Z,0.40
2023-01-18T08:11:19.777Z,0.40
2023-01-18T08:13:49.317Z,0.40
2023-01-18T08:16:16.420Z,0.50
2023-01-18T08:18:45.366Z,0.50
2023-01-18T08:21:13.546Z,0.50
2023-01-18T08:23:41.436Z,0.60
2023-01-18T08:26:09.146Z,0.60
2023-01-18T08:28:36.878Z,0.60
2023-01-18T08:31:13.161Z,0.60
2023-01-18T08:33:48.916Z,0.60
2023-01-18T08:36:18.907Z,0.60
2023-01-18T08:38:50.792Z,0.60
2023-01-18T08:41:19.359Z,0.60
2023-01-18T08:43:51.070Z,0.60
2023-01-18T08:46:18.775Z,0.70
2023-01-18T08:48:48.649Z,0.80
2023-01-18T08:51:18.189Z,0.80
2023-01-18T08:53:46.754Z,0.80
2023-01-18T08:56:13.985Z,0.80
2023-01-18T08:58:41.002Z,0.80
2023-01-18T09:01:09.044Z,0.90
2023-01-18T09:03:37.382Z,0.90
2023-01-18T09:06:08.682Z,1.00
2023-01-18T09:08:36.557Z,1.00
2023-01-18T09:11:08.960Z,1.00
2023-01-18T09:13:36.377Z,1.00
2023-01-18T09:16:07.697Z,1.00
2023-01-18T09:18:35.069Z,1.10
2023-01-18T09:21:11.390Z,1.20
2023-01-18T09:23:40.207Z,1.30
2023-01-18T09:26:09.782Z,1.30
2023-01-18T09:28:37.001Z,1.30
2023-01-18T09:31:06.198Z,1.20
2023-01-18T09:33:38.043Z,1.10
2023-01-18T09:36:07.908Z,1.10
2023-01-18T09:38:36.605Z,1.00
2023-01-18T09:41:07.499Z,1.00
2023-01-18T09:43:43.457Z,1.00
2023-01-18T09:46:22.869Z,0.90
2023-01-18T09:49:02.463Z,0.90
2023-01-18T09:51:43.342Z,1.00
2023-01-18T09:54:35.690Z,1.00
2023-01-18T09:57:21.412Z,1.00
2023-01-18T09:59:52.394Z,0.90
2023-01-18T10:02:25.819Z,0.90
2023-01-18T10:04:59.101Z,0.90
2023-01-18T10:07:29.484Z,0.90
2023-01-18T10:10:00.391Z,0.90
2023-01-18T10:12:36.102Z,0.90
2023-01-18T10:15:22.330Z,0.90
2023-01-18T10:17:53.647Z,0.90
2023-01-18T10:20:34.072Z,0.80
2023-01-18T10:23:19.056Z,0.70
2023-01-18T10:26:16.801Z,0.60
2023-01-18T10:29:21.345Z,0.60
2023-01-18T10:31:48.295Z,0.60
2023-01-18T10:34:20.874Z,0.70
2023-01-18T10:37:01.545Z,0.70
2023-01-18T10:39:49.705Z,0.70
2023-01-18T10:42:23.554Z,0.70
2023-01-18T10:44:50.999Z,0.70
2023-01-18T10:47:20.139Z,0.70
2023-01-18T10:49:50.476Z,0.80
2023-01-18T10:52:29.346Z,0.90
2023-01-18T10:55:07.584Z,0.90
2023-01-18T10:57:45.162Z,0.90
2023-01-18T11:00:32.386Z,0.90
2023-01-18T11:03:01.279Z,0.90
2023-01-18T11:05:34.898Z,0.90
2023-01-18T11:08:37.726Z,0.80
2023-01-18T11:11:47.288Z,0.80
2023-01-18T11:14:29.703Z,0.80
2023-01-18T11:17:11.586Z,0.80
2023-01-18T11:19:39.584Z,0.80
2023-01-18T11:22:33.813Z,0.80
2023-01-18T11:25:00.859Z,0.80
2023-01-18T11:27:28.126Z,0.80
2023-01-18T11:29:55.488Z,0.80
2023-01-18T11:32:29.918Z,0.70
2023-01-18T11:34:59.582Z,0.70
2023-01-18T11:37:36.933Z,0.80
2023-01-18T11:40:18.909Z,0.70
2023-01-18T11:42:46.893Z,0.80
2023-01-18T11:45:41.219Z,0.80
2023-01-18T11:48:28.676Z,0.80
2023-01-18T11:51:07.350Z,0.90
2023-01-18T11:53:54.360Z,0.90
2023-01-18T11:56:32.471Z,0.90
2023-01-18T11:59:01.922Z,1.00
2023-01-18T12:01:49.225Z,0.90
2023-01-18T12:04:57.991Z,0.90
2023-01-18T12:07:40.150Z,0.80
2023-01-18T12:10:15.799Z,0.80
2023-01-18T12:12:48.724Z,0.80
2023-01-18T12:15:43.572Z,0.80
2023-01-18T12:18:47.761Z,0.80
2023-01-18T12:21:32.105Z,0.80
2023-01-18T12:24:46.254Z,0.80
2023-01-18T12:27:40.763Z,0.80
2023-01-18T12:30:22.530Z,0.90
2023-01-18T12:33:03.341Z,0.90
2023-01-18T12:35:42.478Z,1.00
2023-01-18T12:38:26.093Z,1.00
2023-01-18T12:41:04.992Z,1.00
2023-01-18T12:43:43.385Z,1.00
2023-01-18T12:46:19.401Z,1.00
2023-01-18T12:48:56.664Z,1.00
2023-01-18T12:51:28.036Z,1.00
2023-01-18T12:54:04.384Z,1.00
2023-01-18T12:56:36.640Z,0.90
2023-01-18T12:59:36.254Z,1.00
2023-01-18T13:02:25.611Z,1.00
2023-01-18T13:04:58.381Z,0.90
2023-01-18T13:07:35.095Z,0.90
2023-01-18T13:10:05.585Z,0.90
2023-01-18T13:12:33.029Z,1.00
2023-01-18T13:15:07.929Z,1.00
2023-01-18T13:17:56.612Z,1.00
2023-01-18T13:20:49.835Z,1.00
2023-01-18T13:23:31.809Z,1.00
2023-01-18T13:26:08.071Z,1.00
2023-01-18T13:28:35.247Z,1.10
2023-01-18T13:31:05.079Z,1.00
2023-01-18T13:33:45.625Z,1.10
2023-01-18T13:36:19.766Z,1.00
2023-01-18T13:39:13.117Z,1.00
2023-01-18T13:41:40.337Z,1.00
2023-01-18T13:44:32.806Z,1.00
2023-01-18T13:47:00.986Z,0.90
2023-01-18T13:49:37.350Z,1.00
2023-01-18T13:52:30.567Z,1.00
2023-01-18T13:55:01.899Z,1.00
2023-01-18T13:57:31.516Z,1.00
2023-01-18T14:00:00.223Z,1.00
2023-01-18T14:02:44.055Z,1.00
2023-01-18T14:05:45.424Z,1.00
2023-01-18T14:08:22.851Z,0.90
2023-01-18T14:10:55.654Z,1.00
2023-01-18T14:13:44.477Z,1.00
2023-01-18T14:16:18.587Z,1.00
2023-01-18T14:18:58.664Z,0.90
2023-01-18T14:21:44.274Z,0.90
2023-01-18T14:25:03.469Z,1.00
2023-01-18T14:27:41.554Z,0.90
2023-01-18T14:30:21.759Z,0.90
2023-01-18T14:33:01.094Z,0.90
2023-01-18T14:35:28.411Z,0.90
2023-01-18T14:38:18.696Z,1.00
2023-01-18T14:40:49.022Z,1.00
2023-01-18T14:43:30.784Z,0.90
2023-01-18T14:46:26.638Z,0.90
2023-01-18T14:48:57.444Z,0.90
2023-01-18T14:51:28.551Z,0.90
2023-01-18T14:53:58.062Z,0.90
2023-01-18T14:56:35.443Z,0.90
2023-01-18T14:59:19.913Z,0.90
2023-01-18T15:02:01.553Z,0.90
2023-01-18T15:04:31.404Z,0.80
2023-01-18T15:07:01.107Z,0.80
2023-01-18T15:09:32.394Z,0.80
2023-01-18T15:12:03.750Z,0.80
2023-01-18T15:14:34.555Z,0.80
2023-01-18T15:17:05.990Z,0.80
2023-01-18T15:19:35.732Z,0.80
2023-01-18T15:22:05.164Z,0.80
2023-01-18T15:24:40.969Z,0.80
2023-01-18T15:27:16.321Z,0.80
2023-01-18T15:29:57.840Z,0.80
2023-01-18T15:32:28.389Z,0.80
2023-01-18T15:34:56.706Z,0.80
2023-01-18T15:37:26.759Z,0.80
2023-01-18T15:40:02.599Z,0.70
2023-01-18T15:42:42.824Z,0.70
2023-01-18T15:45:24.779Z,0.70
2023-01-18T15:47:57.823Z,0.70
2023-01-18T15:50:31.232Z,0.70
2023-01-18T15:53:11.847Z,0.70
2023-01-18T15:55:45.886Z,0.60
2023-01-18T15:58:55.763Z,0.60
2023-01-18T16:01:32.077Z,0.60
2023-01-18T16:04:04.120Z,0.60
2023-01-18T16:06:33.970Z,0.60
2023-01-18T16:09:17.445Z,0.60
2023-01-18T16:11:54.251Z,0.60
2023-01-18T16:14:28.665Z,0.60
2023-01-18T16:16:58.185Z,0.50
2023-01-18T16:19:25.226Z,0.50
2023-01-18T16:21:55.426Z,0.50
2023-01-18T16:24:39.331Z,0.50
2023-01-18T16:27:19.352Z,0.50
2023-01-18T16:29:56.447Z,0.50
2023-01-18T16:32:23.439Z,0.40
2023-01-18T16:34:50.979Z,0.40
2023-01-18T16:37:18.756Z,0.40
2023-01-18T16:39:45.796Z,0.50
2023-01-18T16:42:13.408Z,0.40
2023-01-18T16:44:45.490Z,0.40
2023-01-18T16:47:16.858Z,0.50
2023-01-18T16:49:45.517Z,0.40
2023-01-18T16:52:13.501Z,0.40
2023-01-18T16:54:45.606Z,0.40
2023-01-18T16:57:30.853Z,0.40
2023-01-18T16:59:57.837Z,0.40
2023-01-18T17:02:25.096Z,0.40
2023-01-18T17:04:52.691Z,0.40
2023-01-18T17:07:19.815Z,0.40
2023-01-18T17:09:49.409Z,0.40
2023-01-18T17:12:16.850Z,0.30
2023-01-18T17:14:44.136Z,0.30
2023-01-18T17:17:11.357Z,0.30
2023-01-18T17:19:40.596Z,0.30
2023-01-18T17:22:07.623Z,0.30
2023-01-18T17:24:34.755Z,0.20
2023-01-18T17:27:02.066Z,0.20
2023-01-18T17:29:29.647Z,0.20
2023-01-18T17:31:56.636Z,0.20
2023-01-18T17:34:28.177Z,0.10
2023-01-18T17:36:56.947Z,0.20
2023-01-18T17:39:31.820Z,0.10
2023-01-18T17:42:12.292Z,0.10
2023-01-18T17:44:41.531Z,0.10
2023-01-18T17:47:08.672Z,0.10
2023-01-18T17:49:35.702Z,0.10
2023-01-18T17:52:02.654Z,0.10
2023-01-18T17:54:29.868Z,0.00
2023-01-18T17:56:56.971Z,0.00
2023-01-18T17:59:24.048Z,0.00
2023-01-18T18:01:51.021Z,0.00
2023-01-18T18:04:18.668Z,0.00
2023-01-18T18:06:53.788Z,0.00
2023-01-18T18:09:21.411Z,0.00
2023-01-18T18:11:48.401Z,0.00
2023-01-18T18:14:15.368Z,0.00
2023-01-18T18:16:43.762Z,0.00
2023-01-18T18:19:14.904Z,0.00
2023-01-18T18:21:43.207Z,0.00
2023-01-18T18:24:10.223Z,0.00
2023-01-18T18:26:37.183Z,0.00
2023-01-18T18:29:04.532Z,-0.10
2023-01-18T18:31:31.914Z,0.00
2023-01-18T18:33:58.901Z,0.00
2023-01-18T18:36:27.607Z,0.00
2023-01-18T18:38:54.711Z,-0.10
2023-01-18T18:41:21.706Z,-0.10
2023-01-18T18:43:48.651Z,-0.10
2023-01-18T18:46:15.757Z,-0.10
2023-01-18T18:48:42.962Z,-0.10
2023-01-18T18:51:10.438Z,-0.10
2023-01-18T18:53:40.235Z,-0.10
2023-01-18T18:56:09.813Z,-0.10
2023-01-18T18:58:37.835Z,-0.10
2023-01-18T19:01:05.715Z,-0.20
2023-01-18T19:03:35.483Z,-0.20
2023-01-18T19:06:02.611Z,-0.20
2023-01-18T19:08:29.604Z,-0.20
2023-01-18T19:10:57.293Z,-0.30
2023-01-18T19:13:24.406Z,-0.30
2023-01-18T19:15:51.873Z,-0.30
2023-01-18T19:18:18.856Z,-0.30
2023-01-18T19:20:45.750Z,-0.30
2023-01-18T19:23:12.720Z,-0.40
2023-01-18T19:25:40.650Z,-0.40
2023-01-18T19:28:07.858Z,-0.40
2023-01-18T19:30:35.089Z,-0.40
2023-01-18T19:33:03.433Z,-0.40
2023-01-18T19:35:31.289Z,-0.50
2023-01-18T19:38:00.921Z,-0.40
2023-01-18T19:40:28.214Z,-0.40
2023-01-18T19:42:55.942Z,-0.40
2023-01-18T19:45:28.221Z,-0.40
2023-01-18T19:47:57.763Z,-0.40
2023-01-18T19:50:26.687Z,-0.40
2023-01-18T19:52:53.641Z,-0.40
2023-01-18T19:55:21.812Z,-0.40
2023-01-18T19:57:49.681Z,-0.30
2023-01-18T20:00:17.071Z,-0.40
2023-01-18T20:02:44.297Z,-0.40
2023-01-18T20:05:11.478Z,-0.40
2023-01-18T20:07:39.616Z,-0.40
2023-01-18T20:10:07.858Z,-0.50
2023-01-18T20:12:34.876Z,-0.50
2023-01-18T20:15:02.570Z,-0.60
2023-01-18T20:17:30.209Z,-0.60
2023-01-18T20:19:57.478Z,-0.70
2023-01-18T20:22:24.766Z,-0.70
2023-01-18T20:24:52.153Z,-0.80
2023-01-18T20:27:19.935Z,-0.80
2023-01-18T20:29:47.171Z,-0.90
2023-01-18T20:32:17.428Z,-0.90
2023-01-18T20:34:47.144Z,-0.90
2023-01-18T20:37:15.812Z,-0.90
2023-01-18T20:39:43.186Z,-0.90
2023-01-18T20:42:10.573Z,-0.90
2023-01-18T20:44:38.049Z,-1.00
2023-01-18T20:47:05.298Z,-0.90
2023-01-18T20:49:38.448Z,-0.90
2023-01-18T20:52:07.313Z,-0.90
2023-01-18T20:54:36.189Z,-0.90
2023-01-18T20:57:04.951Z,-0.90
2023-01-18T20:59:32.270Z,-0.90
2023-01-18T21:02:00.317Z,-0.90
2023-01-18T21:04:27.765Z,-0.90
2023-01-18T21:06:57.526Z,-0.90
2023-01-18T21:09:25.575Z,-0.90
2023-01-18T21:11:53.042Z,-1.00
2023-01-18T21:14:20.222Z,-1.00
2023-01-18T21:16:47.752Z,-1.00
2023-01-18T21:19:15.080Z,-1.00
2023-01-18T21:21:42.397Z,-1.10
2023-01-18T21:24:09.731Z,-1.20
2023-01-18T21:26:37.990Z,-1.20
2023-01-18T21:29:06.251Z,-1.40
2023-01-18T21:31:33.475Z,-1.50
2023-01-18T21:34:00.823Z,-1.50
2023-01-18T21:36:28.140Z,-1.60
2023-01-18T21:38:55.599Z,-1.70
2023-01-18T21:41:41.329Z,-1.70
2023-01-18T21:44:30.124Z,-1.80
2023-01-18T21:46:57.380Z,-1.90
2023-01-18T21:50:11.419Z,-2.00
2023-01-18T21:52:49.694Z,-2.10
2023-01-18T21:55:17.479Z,-2.10
2023-01-18T21:57:44.892Z,-2.10
2023-01-18T22:00:12.645Z,-2.20
2023-01-18T22:02:39.953Z,-2.20
2023-01-18T22:05:08.891Z,-2.30
2023-01-18T22:07:36.323Z,-2.30
2023-01-18T22:10:06.016Z,-2.40
2023-01-18T22:12:36.207Z,-2.40
2023-01-18T22:15:04.905Z,-2.40
2023-01-18T22:17:32.153Z,-2.50
2023-01-18T22:20:00.211Z,-2.50
2023-01-18T22:22:27.624Z,-2.50
2023-01-18T22:24:54.947Z,-2.50
2023-01-18T22:27:22.170Z,-2.50
2023-01-18T22:29:49.424Z,-2.50
2023-01-18T22:32:16.611Z,-2.60
2023-01-18T22:34:43.908Z,-2.60
2023-01-18T22:37:11.152Z,-2.60
2023-01-18T22:39:38.355Z,-2.70
2023-01-18T22:42:05.497Z,-2.70
2023-01-18T22:44:33.115Z,-2.70
2023-01-18T22:47:00.358Z,-2.70
2023-01-18T22:49:27.522Z,-2.80
2023-01-18T22:51:54.701Z,-2.80
2023-01-18T22:54:23.151Z,-2.90
2023-01-18T22:56:50.431Z,-2.90
2023-01-18T22:59:17.757Z,-2.90
2023-01-18T23:01:45.250Z,-2.90
2023-01-18T23:04:12.620Z,-2.90
2023-01-18T23:06:48.241Z,-2.90
2023-01-18T23:09:16.598Z,-2.80
2023-01-18T23:11:45.363Z,-2.80
2023-01-18T23:14:30.889Z,-2.90
2023-01-18T23:17:16.940Z,-2.80
2023-01-18T23:19:44.178Z,-2.90
2023-01-18T23:22:11.434Z,-2.90
2023-01-18T23:24:39.267Z,-2.90
2023-01-18T23:27:08.445Z,-2.90
2023-01-18T23:29:35.895Z,-2.90
2023-01-18T23:32:03.111Z,-2.90
2023-01-18T23:34:30.285Z,-2.90
2023-01-18T23:36:57.492Z,-3.00
2023-01-18T23:39:43.358Z,-3.00
2023-01-18T23:42:29.316Z,-3.00
2023-01-18T23:45:15.194Z,-3.00
2023-01-18T23:48:01.345Z,-2.90
2023-01-18T23:50:47.601Z,-2.90
2023-01-18T23:53:33.400Z,-3.00
2023-01-18T23:56:00.858Z,-3.00
2023-01-18T23:58:28.478Z,-3.00
